sensor_id;sensor_type;location;lat;lon;timestamp;temperature;humidity
16728;DHT22;8482;54.396;18.590;2023-02-28T00:01:10;0.70;99.90
16728;DHT22;8482;54.396;18.590;2023-02-28T00:03:39;0.70;99.90
16728;DHT22;8482;54.396;18.590;2023-02-28T00:06:06;0.60;99.90
16728;DHT22;8482;54.396;18.590;2023-02-28T00:08:34;0.60;99.90
16728;DHT22;8482;54.396;18.590;2023-02-28T00:11:05;0.60;99.90
16728;DHT22;8482;54.396;18.590;2023-02-28T00:13:34;0.60;99.90
16728;DHT22;8482;54.396;18.590;2023-02-28T00:16:07;0.60;99.90
16728;DHT22;8482;54.396;18.590;2023-02-28T00:18:36;0.60;99.90
16728;DHT22;8482;54.396;18.590;2023-02-28T00:21:02;0.50;99.90
16728;DHT22;8482;54.396;18.590;2023-02-28T00:23:29;0.50;99.90
16728;DHT22;8482;54.396;18.590;2023-02-28T00:25:55;0.50;99.90
16728;DHT22;8482;54.396;18.590;2023-02-28T00:28:22;0.50;99.90
16728;DHT22;8482;54.396;18.590;2023-02-28T00:30:48;0.50;99.90
16728;DHT22;8482;54.396;18.590;2023-02-28T00:33:13;0.50;99.90
16728;DHT22;8482;54.396;18.590;2023-02-28T00:35:39;0.50;99.90
16728;DHT22;8482;54.396;18.590;2023-02-28T00:38:05;0.50;99.90
16728;DHT22;8482;54.396;18.590;2023-02-28T00:40:31;0.50;99.90
16728;DHT22;8482;54.396;18.590;2023-02-28T00:42:57;0.50;99.90
16728;DHT22;8482;54.396;18.590;2023-02-28T00:45:23;0.50;99.90
16728;DHT22;8482;54.396;18.590;2023-02-28T00:47:49;0.50;99.90
16728;DHT22;8482;54.396;18.590;2023-02-28T00:50:24;0.50;99.90
16728;DHT22;8482;54.396;18.590;2023-02-28T00:52:50;0.50;99.90
16728;DHT22;8482;54.396;18.590;2023-02-28T00:55:16;0.50;99.90
16728;DHT22;8482;54.396;18.590;2023-02-28T00:57:42;0.50;99.90
16728;DHT22;8482;54.396;18.590;2023-02-28T01:00:08;0.50;99.90
16728;DHT22;8482;54.396;18.590;2023-02-28T01:02:35;0.50;99.90
16728;DHT22;8482;54.396;18.590;2023-02-28T01:05:00;0.40;99.90
16728;DHT22;8482;54.396;18.590;2023-02-28T01:07:26;0.40;99.90
16728;DHT22;8482;54.396;18.590;2023-02-28T01:09:52;0.40;99.90
16728;DHT22;8482;54.396;18.590;2023-02-28T01:12:18;0.50;99.90
16728;DHT22;8482;54.396;18.590;2023-02-28T01:14:44;0.40;99.90
16728;DHT22;8482;54.396;18.590;2023-02-28T01:17:10;0.40;99.90
16728;DHT22;8482;54.396;18.590;2023-02-28T01:19:36;0.40;99.90
16728;DHT22;8482;54.396;18.590;2023-02-28T01:22:04;0.40;99.90
16728;DHT22;8482;54.396;18.590;2023-02-28T01:24:31;0.40;99.90
16728;DHT22;8482;54.396;18.590;2023-02-28T01:26:58;0.40;99.90
16728;DHT22;8482;54.396;18.590;2023-02-28T01:29:24;0.40;99.90
16728;DHT22;8482;54.396;18.590;2023-02-28T01:31:50;0.40;99.90
16728;DHT22;8482;54.396;18.590;2023-02-28T01:34:16;0.40;99.90
16728;DHT22;8482;54.396;18.590;2023-02-28T01:36:44;0.40;99.90
16728;DHT22;8482;54.396;18.590;2023-02-28T01:39:11;0.30;99.90
16728;DHT22;8482;54.396;18.590;2023-02-28T01:41:38;0.30;99.90
16728;DHT22;8482;54.396;18.590;2023-02-28T01:47:33;0.30;99.90
16728;DHT22;8482;54.396;18.590;2023-02-28T01:50:05;0.30;99.90
16728;DHT22;8482;54.396;18.590;2023-02-28T01:52:35;0.20;99.90
16728;DHT22;8482;54.396;18.590;2023-02-28T01:55:02;0.20;99.90
16728;DHT22;8482;54.396;18.590;2023-02-28T01:57:38;0.20;99.90
16728;DHT22;8482;54.396;18.590;2023-02-28T02:00:11;0.10;99.90
16728;DHT22;8482;54.396;18.590;2023-02-28T02:02:42;0.20;99.90
16728;DHT22;8482;54.396;18.590;2023-02-28T02:05:22;0.20;99.90
16728;DHT22;8482;54.396;18.590;2023-02-28T02:07:54;0.20;99.90
16728;DHT22;8482;54.396;18.590;2023-02-28T02:10:45;0.20;99.90
16728;DHT22;8482;54.396;18.590;2023-02-28T02:13:44;0.20;99.90
16728;DHT22;8482;54.396;18.590;2023-02-28T02:16:41;0.10;99.90
16728;DHT22;8482;54.396;18.590;2023-02-28T02:22:27;0.10;99.90
16728;DHT22;8482;54.396;18.590;2023-02-28T02:45:54;-0.20;99.90
16728;DHT22;8482;54.396;18.590;2023-02-28T02:48:27;-0.20;99.90
16728;DHT22;8482;54.396;18.590;2023-02-28T02:50:59;-0.30;99.90
16728;DHT22;8482;54.396;18.590;2023-02-28T02:53:39;-0.30;99.90
16728;DHT22;8482;54.396;18.590;2023-02-28T02:56:11;-0.30;99.90
16728;DHT22;8482;54.396;18.590;2023-02-28T02:58:41;-0.30;99.90
16728;DHT22;8482;54.396;18.590;2023-02-28T03:01:12;-0.30;99.90
16728;DHT22;8482;54.396;18.590;2023-02-28T03:03:43;-0.30;99.90
16728;DHT22;8482;54.396;18.590;2023-02-28T03:06:10;-0.30;99.90
16728;DHT22;8482;54.396;18.590;2023-02-28T03:08:38;-0.30;99.90
16728;DHT22;8482;54.396;18.590;2023-02-28T03:11:09;-0.30;99.90
16728;DHT22;8482;54.396;18.590;2023-02-28T03:16:29;-0.20;99.90
16728;DHT22;8482;54.396;18.590;2023-02-28T03:27:55;-0.10;99.90
16728;DHT22;8482;54.396;18.590;2023-02-28T03:30:42;-0.10;99.90
16728;DHT22;8482;54.396;18.590;2023-02-28T03:33:30;-0.10;99.90
16728;DHT22;8482;54.396;18.590;2023-02-28T03:36:13;-0.10;99.90
16728;DHT22;8482;54.396;18.590;2023-02-28T03:39:03;-0.10;99.90
16728;DHT22;8482;54.396;18.590;2023-02-28T03:41:43;0.00;99.90
16728;DHT22;8482;54.396;18.590;2023-02-28T03:44:37;0.00;99.90
16728;DHT22;8482;54.396;18.590;2023-02-28T03:49:54;0.00;99.90
16728;DHT22;8482;54.396;18.590;2023-02-28T03:52:48;0.10;99.90
16728;DHT22;8482;54.396;18.590;2023-02-28T03:55:17;0.10;99.90
16728;DHT22;8482;54.396;18.590;2023-02-28T03:58:04;0.10;99.90
16728;DHT22;8482;54.396;18.590;2023-02-28T04:00:46;0.10;99.90
16728;DHT22;8482;54.396;18.590;2023-02-28T04:03:19;0.10;99.90
16728;DHT22;8482;54.396;18.590;2023-02-28T04:05:53;0.10;99.90
16728;DHT22;8482;54.396;18.590;2023-02-28T04:08:21;0.10;99.90
16728;DHT22;8482;54.396;18.590;2023-02-28T04:13:40;0.20;99.90
16728;DHT22;8482;54.396;18.590;2023-02-28T04:16:09;0.20;99.90
16728;DHT22;8482;54.396;18.590;2023-02-28T04:18:41;0.20;99.90
16728;DHT22;8482;54.396;18.590;2023-02-28T04:21:11;0.20;99.90
16728;DHT22;8482;54.396;18.590;2023-02-28T04:23:37;0.20;99.90
16728;DHT22;8482;54.396;18.590;2023-02-28T04:26:03;0.20;99.90
16728;DHT22;8482;54.396;18.590;2023-02-28T04:28:31;0.20;99.90
16728;DHT22;8482;54.396;18.590;2023-02-28T04:31:02;0.20;99.90
16728;DHT22;8482;54.396;18.590;2023-02-28T04:33:31;0.20;99.90
16728;DHT22;8482;54.396;18.590;2023-02-28T04:36:03;0.20;99.90
16728;DHT22;8482;54.396;18.590;2023-02-28T04:38:35;0.20;99.90
16728;DHT22;8482;54.396;18.590;2023-02-28T04:41:03;0.20;99.90
16728;DHT22;8482;54.396;18.590;2023-02-28T04:43:30;0.20;99.90
16728;DHT22;8482;54.396;18.590;2023-02-28T04:45:58;0.20;99.90
16728;DHT22;8482;54.396;18.590;2023-02-28T04:48:32;0.20;99.90
16728;DHT22;8482;54.396;18.590;2023-02-28T04:51:06;0.20;99.90
16728;DHT22;8482;54.396;18.590;2023-02-28T04:53:35;0.20;99.90
16728;DHT22;8482;54.396;18.590;2023-02-28T04:56:03;0.20;99.90
16728;DHT22;8482;54.396;18.590;2023-02-28T04:58:29;0.20;99.90
16728;DHT22;8482;54.396;18.590;2023-02-28T05:01:23;0.20;99.90
16728;DHT22;8482;54.396;18.590;2023-02-28T05:03:49;0.20;99.90
16728;DHT22;8482;54.396;18.590;2023-02-28T05:06:17;0.20;99.90
16728;DHT22;8482;54.396;18.590;2023-02-28T05:08:44;0.20;99.90
16728;DHT22;8482;54.396;18.590;2023-02-28T05:11:22;0.20;99.90
16728;DHT22;8482;54.396;18.590;2023-02-28T05:13:50;0.20;99.90
16728;DHT22;8482;54.396;18.590;2023-02-28T05:16:18;0.20;99.90
16728;DHT22;8482;54.396;18.590;2023-02-28T05:18:44;0.20;99.90
16728;DHT22;8482;54.396;18.590;2023-02-28T05:24:02;0.20;99.90
16728;DHT22;8482;54.396;18.590;2023-02-28T05:26:31;0.20;99.90
16728;DHT22;8482;54.396;18.590;2023-02-28T05:28:59;0.20;99.90
16728;DHT22;8482;54.396;18.590;2023-02-28T05:31:25;0.30;99.90
16728;DHT22;8482;54.396;18.590;2023-02-28T05:33:51;0.20;99.90
16728;DHT22;8482;54.396;18.590;2023-02-28T05:36:17;0.30;99.90
16728;DHT22;8482;54.396;18.590;2023-02-28T05:38:46;0.30;99.90
16728;DHT22;8482;54.396;18.590;2023-02-28T05:41:13;0.30;99.90
16728;DHT22;8482;54.396;18.590;2023-02-28T05:43:40;0.30;99.90
16728;DHT22;8482;54.396;18.590;2023-02-28T05:46:07;0.30;99.90
16728;DHT22;8482;54.396;18.590;2023-02-28T05:48:37;0.30;99.90
16728;DHT22;8482;54.396;18.590;2023-02-28T05:51:04;0.30;99.90
16728;DHT22;8482;54.396;18.590;2023-02-28T05:53:32;0.30;99.90
16728;DHT22;8482;54.396;18.590;2023-02-28T05:55:59;0.30;99.90
16728;DHT22;8482;54.396;18.590;2023-02-28T05:58:26;0.40;99.90
16728;DHT22;8482;54.396;18.590;2023-02-28T06:00:56;0.40;99.90
16728;DHT22;8482;54.396;18.590;2023-02-28T06:03:23;0.40;99.90
16728;DHT22;8482;54.396;18.590;2023-02-28T06:05:49;0.40;99.90
16728;DHT22;8482;54.396;18.590;2023-02-28T06:08:16;0.40;99.90
16728;DHT22;8482;54.396;18.590;2023-02-28T06:10:42;0.40;99.90
16728;DHT22;8482;54.396;18.590;2023-02-28T06:13:08;0.40;99.90
16728;DHT22;8482;54.396;18.590;2023-02-28T06:15:34;0.50;99.90
16728;DHT22;8482;54.396;18.590;2023-02-28T06:18:00;0.50;99.90
16728;DHT22;8482;54.396;18.590;2023-02-28T06:20:29;0.60;99.90
16728;DHT22;8482;54.396;18.590;2023-02-28T06:22:57;0.60;99.90
16728;DHT22;8482;54.396;18.590;2023-02-28T06:25:26;0.60;99.90
16728;DHT22;8482;54.396;18.590;2023-02-28T06:27:54;0.70;99.90
16728;DHT22;8482;54.396;18.590;2023-02-28T06:30:21;0.70;99.90
16728;DHT22;8482;54.396;18.590;2023-02-28T06:32:50;0.70;99.90
16728;DHT22;8482;54.396;18.590;2023-02-28T06:35:17;0.80;99.90
16728;DHT22;8482;54.396;18.590;2023-02-28T06:37:43;0.80;99.90
16728;DHT22;8482;54.396;18.590;2023-02-28T06:40:10;0.80;99.90
16728;DHT22;8482;54.396;18.590;2023-02-28T06:42:36;0.90;99.90
16728;DHT22;8482;54.396;18.590;2023-02-28T06:45:03;0.90;99.90
16728;DHT22;8482;54.396;18.590;2023-02-28T06:47:35;1.00;99.90
16728;DHT22;8482;54.396;18.590;2023-02-28T06:50:02;1.00;99.90
16728;DHT22;8482;54.396;18.590;2023-02-28T06:52:30;1.10;99.90
16728;DHT22;8482;54.396;18.590;2023-02-28T06:54:55;1.10;99.90
16728;DHT22;8482;54.396;18.590;2023-02-28T06:57:28;1.20;99.90
16728;DHT22;8482;54.396;18.590;2023-02-28T07:00:00;1.20;99.90
16728;DHT22;8482;54.396;18.590;2023-02-28T07:02:28;1.30;99.90
16728;DHT22;8482;54.396;18.590;2023-02-28T07:04:54;1.40;99.90
16728;DHT22;8482;54.396;18.590;2023-02-28T07:07:20;1.40;99.90
16728;DHT22;8482;54.396;18.590;2023-02-28T07:09:46;1.50;99.90
16728;DHT22;8482;54.396;18.590;2023-02-28T07:12:12;1.50;99.90
16728;DHT22;8482;54.396;18.590;2023-02-28T07:14:38;1.60;99.90
16728;DHT22;8482;54.396;18.590;2023-02-28T07:17:04;1.60;99.90
16728;DHT22;8482;54.396;18.590;2023-02-28T07:19:33;1.70;99.90
16728;DHT22;8482;54.396;18.590;2023-02-28T07:21:58;1.70;99.90
16728;DHT22;8482;54.396;18.590;2023-02-28T07:24:25;1.80;99.90
16728;DHT22;8482;54.396;18.590;2023-02-28T07:26:53;1.90;99.90
16728;DHT22;8482;54.396;18.590;2023-02-28T07:29:19;1.90;99.90
16728;DHT22;8482;54.396;18.590;2023-02-28T07:31:45;1.90;99.90
16728;DHT22;8482;54.396;18.590;2023-02-28T07:34:12;1.90;99.90
16728;DHT22;8482;54.396;18.590;2023-02-28T07:36:39;2.00;99.90
16728;DHT22;8482;54.396;18.590;2023-02-28T07:39:05;2.00;99.90
16728;DHT22;8482;54.396;18.590;2023-02-28T07:41:31;2.10;99.90
16728;DHT22;8482;54.396;18.590;2023-02-28T07:43:59;2.10;99.90
16728;DHT22;8482;54.396;18.590;2023-02-28T07:46:25;2.20;99.90
16728;DHT22;8482;54.396;18.590;2023-02-28T07:48:51;2.20;99.90
16728;DHT22;8482;54.396;18.590;2023-02-28T07:51:18;2.20;99.90
16728;DHT22;8482;54.396;18.590;2023-02-28T07:53:44;2.30;99.90
16728;DHT22;8482;54.396;18.590;2023-02-28T07:56:10;2.30;99.90
16728;DHT22;8482;54.396;18.590;2023-02-28T07:58:36;2.40;99.90
16728;DHT22;8482;54.396;18.590;2023-02-28T08:01:10;2.50;99.90
16728;DHT22;8482;54.396;18.590;2023-02-28T08:03:37;2.50;99.90
16728;DHT22;8482;54.396;18.590;2023-02-28T08:06:05;2.60;99.90
16728;DHT22;8482;54.396;18.590;2023-02-28T08:08:33;2.60;99.90
16728;DHT22;8482;54.396;18.590;2023-02-28T08:11:01;2.70;99.90
16728;DHT22;8482;54.396;18.590;2023-02-28T08:13:29;2.80;99.90
16728;DHT22;8482;54.396;18.590;2023-02-28T08:15:56;2.80;99.90
16728;DHT22;8482;54.396;18.590;2023-02-28T08:18:23;2.90;99.90
16728;DHT22;8482;54.396;18.590;2023-02-28T08:20:49;2.90;99.90
16728;DHT22;8482;54.396;18.590;2023-02-28T08:23:15;3.00;99.90
16728;DHT22;8482;54.396;18.590;2023-02-28T08:25:41;3.00;99.90
16728;DHT22;8482;54.396;18.590;2023-02-28T08:28:07;3.10;99.90
16728;DHT22;8482;54.396;18.590;2023-02-28T08:30:32;3.10;99.90
16728;DHT22;8482;54.396;18.590;2023-02-28T08:32:58;3.20;99.90
16728;DHT22;8482;54.396;18.590;2023-02-28T08:35:24;3.30;99.90
16728;DHT22;8482;54.396;18.590;2023-02-28T08:37:50;3.30;99.90
16728;DHT22;8482;54.396;18.590;2023-02-28T08:40:17;3.40;99.90
16728;DHT22;8482;54.396;18.590;2023-02-28T08:42:46;3.40;99.90
16728;DHT22;8482;54.396;18.590;2023-02-28T08:45:14;3.50;99.90
16728;DHT22;8482;54.396;18.590;2023-02-28T08:47:40;3.60;99.90
16728;DHT22;8482;54.396;18.590;2023-02-28T08:50:07;3.60;99.90
16728;DHT22;8482;54.396;18.590;2023-02-28T08:52:33;3.70;99.90
16728;DHT22;8482;54.396;18.590;2023-02-28T08:54:59;3.70;99.90
16728;DHT22;8482;54.396;18.590;2023-02-28T08:57:25;3.80;99.90
16728;DHT22;8482;54.396;18.590;2023-02-28T08:59:53;3.80;99.90
16728;DHT22;8482;54.396;18.590;2023-02-28T09:02:19;3.80;99.90
16728;DHT22;8482;54.396;18.590;2023-02-28T09:04:45;3.90;99.90
16728;DHT22;8482;54.396;18.590;2023-02-28T09:07:11;3.90;99.90
16728;DHT22;8482;54.396;18.590;2023-02-28T09:09:37;4.00;99.90
16728;DHT22;8482;54.396;18.590;2023-02-28T09:12:22;4.00;99.90
16728;DHT22;8482;54.396;18.590;2023-02-28T09:14:48;4.10;99.90
16728;DHT22;8482;54.396;18.590;2023-02-28T09:17:14;4.10;99.90
16728;DHT22;8482;54.396;18.590;2023-02-28T09:19:40;4.20;99.90
16728;DHT22;8482;54.396;18.590;2023-02-28T09:22:06;4.30;99.90
16728;DHT22;8482;54.396;18.590;2023-02-28T09:24:32;4.30;99.90
16728;DHT22;8482;54.396;18.590;2023-02-28T09:26:58;4.30;99.90
16728;DHT22;8482;54.396;18.590;2023-02-28T09:29:24;4.40;99.90
16728;DHT22;8482;54.396;18.590;2023-02-28T09:31:50;4.50;99.90
16728;DHT22;8482;54.396;18.590;2023-02-28T09:34:16;4.60;99.90
16728;DHT22;8482;54.396;18.590;2023-02-28T09:36:42;4.60;99.90
16728;DHT22;8482;54.396;18.590;2023-02-28T09:39:09;4.70;99.90
16728;DHT22;8482;54.396;18.590;2023-02-28T09:41:41;4.80;99.90
16728;DHT22;8482;54.396;18.590;2023-02-28T09:44:30;4.80;99.90
16728;DHT22;8482;54.396;18.590;2023-02-28T09:47:42;4.90;99.90
16728;DHT22;8482;54.396;18.590;2023-02-28T09:53:02;5.00;99.90
16728;DHT22;8482;54.396;18.590;2023-02-28T09:55:44;5.10;99.90
16728;DHT22;8482;54.396;18.590;2023-02-28T10:01:27;5.20;99.90
16728;DHT22;8482;54.396;18.590;2023-02-28T10:10:48;5.50;99.90
16728;DHT22;8482;54.396;18.590;2023-02-28T10:13:32;5.60;99.90
16728;DHT22;8482;54.396;18.590;2023-02-28T10:16:13;5.60;99.90
16728;DHT22;8482;54.396;18.590;2023-02-28T10:18:47;5.70;99.90
16728;DHT22;8482;54.396;18.590;2023-02-28T10:29:46;5.90;99.30
16728;DHT22;8482;54.396;18.590;2023-02-28T10:32:34;6.00;99.10
16728;DHT22;8482;54.396;18.590;2023-02-28T10:37:44;6.10;98.80
16728;DHT22;8482;54.396;18.590;2023-02-28T10:45:21;6.30;98.90
16728;DHT22;8482;54.396;18.590;2023-02-28T11:01:40;6.60;96.80
16728;DHT22;8482;54.396;18.590;2023-02-28T11:06:43;6.70;96.40
16728;DHT22;8482;54.396;18.590;2023-02-28T11:11:59;6.90;95.80
16728;DHT22;8482;54.396;18.590;2023-02-28T11:14:31;7.00;95.30
16728;DHT22;8482;54.396;18.590;2023-02-28T11:17:28;7.00;94.70
16728;DHT22;8482;54.396;18.590;2023-02-28T11:20:07;7.10;94.40
16728;DHT22;8482;54.396;18.590;2023-02-28T11:22:45;7.20;94.40
16728;DHT22;8482;54.396;18.590;2023-02-28T11:25:24;7.30;94.40
16728;DHT22;8482;54.396;18.590;2023-02-28T11:28:00;7.40;94.30
16728;DHT22;8482;54.396;18.590;2023-02-28T11:30:31;7.40;93.40
16728;DHT22;8482;54.396;18.590;2023-02-28T11:36:24;7.50;93.50
16728;DHT22;8482;54.396;18.590;2023-02-28T11:39:04;7.60;93.50
16728;DHT22;8482;54.396;18.590;2023-02-28T11:44:57;7.70;93.00
16728;DHT22;8482;54.396;18.590;2023-02-28T11:47:47;7.80;92.30
16728;DHT22;8482;54.396;18.590;2023-02-28T11:50:52;7.90;91.90
16728;DHT22;8482;54.396;18.590;2023-02-28T11:56:33;8.00;90.60
16728;DHT22;8482;54.396;18.590;2023-02-28T11:59:35;8.00;90.10
16728;DHT22;8482;54.396;18.590;2023-02-28T12:08:40;8.30;88.80
16728;DHT22;8482;54.396;18.590;2023-02-28T12:11:45;8.40;88.60
16728;DHT22;8482;54.396;18.590;2023-02-28T12:14:43;8.50;88.30
16728;DHT22;8482;54.396;18.590;2023-02-28T12:17:42;8.60;87.20
16728;DHT22;8482;54.396;18.590;2023-02-28T12:29:24;9.00;85.70
16728;DHT22;8482;54.396;18.590;2023-02-28T12:32:40;9.10;84.50
16728;DHT22;8482;54.396;18.590;2023-02-28T12:40:22;9.40;83.70
16728;DHT22;8482;54.396;18.590;2023-02-28T12:43:02;9.40;82.90
16728;DHT22;8482;54.396;18.590;2023-02-28T12:45:42;9.50;82.80
16728;DHT22;8482;54.396;18.590;2023-02-28T12:48:18;9.60;82.10
16728;DHT22;8482;54.396;18.590;2023-02-28T12:51:11;9.60;81.60
16728;DHT22;8482;54.396;18.590;2023-02-28T12:54:01;9.70;81.50
16728;DHT22;8482;54.396;18.590;2023-02-28T12:56:49;9.80;81.00
16728;DHT22;8482;54.396;18.590;2023-02-28T13:11:50;10.40;78.60
16728;DHT22;8482;54.396;18.590;2023-02-28T13:14:27;10.60;79.10
16728;DHT22;8482;54.396;18.590;2023-02-28T13:19:37;11.00;77.40
16728;DHT22;8482;54.396;18.590;2023-02-28T13:22:20;11.10;76.50
16728;DHT22;8482;54.396;18.590;2023-02-28T13:27:52;11.50;74.50
16728;DHT22;8482;54.396;18.590;2023-02-28T13:49:25;14.20;66.80
16728;DHT22;8482;54.396;18.590;2023-02-28T13:57:47;15.60;61.60
16728;DHT22;8482;54.396;18.590;2023-02-28T14:00:31;16.10;60.60
16728;DHT22;8482;54.396;18.590;2023-02-28T14:06:27;16.80;59.80
16728;DHT22;8482;54.396;18.590;2023-02-28T14:11:52;17.50;57.90
16728;DHT22;8482;54.396;18.590;2023-02-28T14:17:15;17.90;57.20
16728;DHT22;8482;54.396;18.590;2023-02-28T14:19:46;18.30;56.50
16728;DHT22;8482;54.396;18.590;2023-02-28T14:22:55;18.70;55.80
16728;DHT22;8482;54.396;18.590;2023-02-28T14:31:22;19.60;53.50
16728;DHT22;8482;54.396;18.590;2023-02-28T14:36:50;20.10;52.20
16728;DHT22;8482;54.396;18.590;2023-02-28T14:39:22;20.20;51.70
16728;DHT22;8482;54.396;18.590;2023-02-28T14:41:50;20.10;51.90
16728;DHT22;8482;54.396;18.590;2023-02-28T14:44:22;20.20;51.60
16728;DHT22;8482;54.396;18.590;2023-02-28T14:46:57;20.10;51.30
16728;DHT22;8482;54.396;18.590;2023-02-28T14:49:37;20.00;51.90
16728;DHT22;8482;54.396;18.590;2023-02-28T14:52:17;20.10;51.60
16728;DHT22;8482;54.396;18.590;2023-02-28T14:55:12;20.20;51.50
16728;DHT22;8482;54.396;18.590;2023-02-28T14:57:50;20.10;51.60
16728;DHT22;8482;54.396;18.590;2023-02-28T15:00:33;20.10;51.50
16728;DHT22;8482;54.396;18.590;2023-02-28T15:03:22;19.80;51.50
16728;DHT22;8482;54.396;18.590;2023-02-28T15:06:15;19.80;52.00
16728;DHT22;8482;54.396;18.590;2023-02-28T15:08:44;19.50;52.60
16728;DHT22;8482;54.396;18.590;2023-02-28T15:11:16;18.80;52.90
16728;DHT22;8482;54.396;18.590;2023-02-28T15:13:52;17.90;54.00
16728;DHT22;8482;54.396;18.590;2023-02-28T15:16:22;16.90;55.40
16728;DHT22;8482;54.396;18.590;2023-02-28T15:18:56;15.90;57.20
16728;DHT22;8482;54.396;18.590;2023-02-28T15:24:03;14.20;60.50
16728;DHT22;8482;54.396;18.590;2023-02-28T15:26:33;13.50;62.50
16728;DHT22;8482;54.396;18.590;2023-02-28T15:29:19;12.80;64.20
16728;DHT22;8482;54.396;18.590;2023-02-28T15:32:00;12.30;66.00
16728;DHT22;8482;54.396;18.590;2023-02-28T15:34:39;11.80;67.20
16728;DHT22;8482;54.396;18.590;2023-02-28T15:40:09;10.90;70.10
16728;DHT22;8482;54.396;18.590;2023-02-28T15:43:18;10.50;71.10
16728;DHT22;8482;54.396;18.590;2023-02-28T15:48:37;9.90;73.50
16728;DHT22;8482;54.396;18.590;2023-02-28T15:51:31;9.60;74.40
16728;DHT22;8482;54.396;18.590;2023-02-28T15:54:22;9.40;75.30
16728;DHT22;8482;54.396;18.590;2023-02-28T15:56:55;9.20;76.10
16728;DHT22;8482;54.396;18.590;2023-02-28T15:59:26;9.00;76.70
16728;DHT22;8482;54.396;18.590;2023-02-28T16:07:32;8.50;78.70
16728;DHT22;8482;54.396;18.590;2023-02-28T16:10:03;8.30;79.30
16728;DHT22;8482;54.396;18.590;2023-02-28T16:12:32;8.20;80.00
16728;DHT22;8482;54.396;18.590;2023-02-28T16:15:02;8.10;80.50
16728;DHT22;8482;54.396;18.590;2023-02-28T16:17:35;8.00;81.20
16728;DHT22;8482;54.396;18.590;2023-02-28T16:20:24;7.90;81.60
16728;DHT22;8482;54.396;18.590;2023-02-28T16:22:52;7.80;82.00
16728;DHT22;8482;54.396;18.590;2023-02-28T16:25:21;7.70;82.60
16728;DHT22;8482;54.396;18.590;2023-02-28T16:27:52;7.60;83.00
16728;DHT22;8482;54.396;18.590;2023-02-28T16:30:24;7.50;83.50
16728;DHT22;8482;54.396;18.590;2023-02-28T16:32:53;7.50;84.10
16728;DHT22;8482;54.396;18.590;2023-02-28T16:35:21;7.40;84.50
16728;DHT22;8482;54.396;18.590;2023-02-28T16:37:48;7.30;85.00
16728;DHT22;8482;54.396;18.590;2023-02-28T16:40:19;7.20;85.50
16728;DHT22;8482;54.396;18.590;2023-02-28T16:42:52;7.20;86.10
16728;DHT22;8482;54.396;18.590;2023-02-28T16:45:24;7.10;86.60
16728;DHT22;8482;54.396;18.590;2023-02-28T16:47:51;7.00;87.30
16728;DHT22;8482;54.396;18.590;2023-02-28T16:50:28;6.90;87.90
16728;DHT22;8482;54.396;18.590;2023-02-28T16:52:56;6.90;88.40
16728;DHT22;8482;54.396;18.590;2023-02-28T16:55:22;6.80;89.00
16728;DHT22;8482;54.396;18.590;2023-02-28T16:57:56;6.80;89.60
16728;DHT22;8482;54.396;18.590;2023-02-28T17:00:25;6.80;90.10
16728;DHT22;8482;54.396;18.590;2023-02-28T17:02:52;6.70;90.40
16728;DHT22;8482;54.396;18.590;2023-02-28T17:05:19;6.60;90.80
16728;DHT22;8482;54.396;18.590;2023-02-28T17:07:46;6.60;91.20
16728;DHT22;8482;54.396;18.590;2023-02-28T17:10:18;6.50;91.50
16728;DHT22;8482;54.396;18.590;2023-02-28T17:12:47;6.40;92.10
16728;DHT22;8482;54.396;18.590;2023-02-28T17:15:15;6.40;92.70
16728;DHT22;8482;54.396;18.590;2023-02-28T17:17:43;6.30;93.00
16728;DHT22;8482;54.396;18.590;2023-02-28T17:20:21;6.30;93.30
16728;DHT22;8482;54.396;18.590;2023-02-28T17:22:51;6.20;93.50
16728;DHT22;8482;54.396;18.590;2023-02-28T17:25:17;6.20;93.70
16728;DHT22;8482;54.396;18.590;2023-02-28T17:27:43;6.10;93.90
16728;DHT22;8482;54.396;18.590;2023-02-28T17:30:23;6.10;94.20
16728;DHT22;8482;54.396;18.590;2023-02-28T17:32:55;6.10;94.50
16728;DHT22;8482;54.396;18.590;2023-02-28T17:35:23;6.00;94.60
16728;DHT22;8482;54.396;18.590;2023-02-28T17:37:49;6.00;94.80
16728;DHT22;8482;54.396;18.590;2023-02-28T17:40:17;6.00;95.10
16728;DHT22;8482;54.396;18.590;2023-02-28T17:42:45;6.00;95.20
16728;DHT22;8482;54.396;18.590;2023-02-28T17:45:12;5.90;95.20
16728;DHT22;8482;54.396;18.590;2023-02-28T17:47:40;5.90;95.20
16728;DHT22;8482;54.396;18.590;2023-02-28T17:50:17;5.90;95.20
16728;DHT22;8482;54.396;18.590;2023-02-28T17:52:45;5.80;95.30
16728;DHT22;8482;54.396;18.590;2023-02-28T17:55:11;5.80;95.40
16728;DHT22;8482;54.396;18.590;2023-02-28T17:57:38;5.80;95.50
16728;DHT22;8482;54.396;18.590;2023-02-28T18:00:05;5.80;95.60
16728;DHT22;8482;54.396;18.590;2023-02-28T18:02:32;5.70;95.70
16728;DHT22;8482;54.396;18.590;2023-02-28T18:04:59;5.70;95.80
16728;DHT22;8482;54.396;18.590;2023-02-28T18:07:25;5.70;95.80
16728;DHT22;8482;54.396;18.590;2023-02-28T18:09:51;5.70;95.80
16728;DHT22;8482;54.396;18.590;2023-02-28T18:12:16;5.70;95.90
16728;DHT22;8482;54.396;18.590;2023-02-28T18:14:42;5.60;95.90
16728;DHT22;8482;54.396;18.590;2023-02-28T18:17:11;5.60;95.90
16728;DHT22;8482;54.396;18.590;2023-02-28T18:19:38;5.60;95.90
16728;DHT22;8482;54.396;18.590;2023-02-28T18:22:07;5.60;96.00
16728;DHT22;8482;54.396;18.590;2023-02-28T18:24:33;5.60;96.10
16728;DHT22;8482;54.396;18.590;2023-02-28T18:27:00;5.50;96.20
16728;DHT22;8482;54.396;18.590;2023-02-28T18:29:27;5.50;96.30
16728;DHT22;8482;54.396;18.590;2023-02-28T18:31:55;5.50;96.40
16728;DHT22;8482;54.396;18.590;2023-02-28T18:34:23;5.50;96.50
16728;DHT22;8482;54.396;18.590;2023-02-28T18:36:50;5.50;96.50
16728;DHT22;8482;54.396;18.590;2023-02-28T18:39:18;5.50;96.50
16728;DHT22;8482;54.396;18.590;2023-02-28T18:41:44;5.40;96.50
16728;DHT22;8482;54.396;18.590;2023-02-28T18:44:10;5.40;96.50
16728;DHT22;8482;54.396;18.590;2023-02-28T18:46:38;5.40;96.60
16728;DHT22;8482;54.396;18.590;2023-02-28T18:49:04;5.40;96.70
16728;DHT22;8482;54.396;18.590;2023-02-28T18:51:31;5.30;96.60
16728;DHT22;8482;54.396;18.590;2023-02-28T18:53:58;5.30;96.70
16728;DHT22;8482;54.396;18.590;2023-02-28T18:56:24;5.30;96.90
16728;DHT22;8482;54.396;18.590;2023-02-28T18:58:51;5.20;97.00
16728;DHT22;8482;54.396;18.590;2023-02-28T19:01:23;5.20;97.10
16728;DHT22;8482;54.396;18.590;2023-02-28T19:03:54;5.20;97.40
16728;DHT22;8482;54.396;18.590;2023-02-28T19:06:21;5.10;97.40
16728;DHT22;8482;54.396;18.590;2023-02-28T19:08:55;5.10;97.60
16728;DHT22;8482;54.396;18.590;2023-02-28T19:11:22;5.10;97.70
16728;DHT22;8482;54.396;18.590;2023-02-28T19:13:49;5.10;98.00
16728;DHT22;8482;54.396;18.590;2023-02-28T19:16:17;5.00;98.20
16728;DHT22;8482;54.396;18.590;2023-02-28T19:18:44;5.00;98.50
16728;DHT22;8482;54.396;18.590;2023-02-28T19:21:13;5.00;98.50
16728;DHT22;8482;54.396;18.590;2023-02-28T19:23:41;5.00;98.70
16728;DHT22;8482;54.396;18.590;2023-02-28T19:26:09;4.90;98.90
16728;DHT22;8482;54.396;18.590;2023-02-28T19:28:38;4.90;99.10
16728;DHT22;8482;54.396;18.590;2023-02-28T19:31:04;4.90;99.30
16728;DHT22;8482;54.396;18.590;2023-02-28T19:33:37;4.90;99.40